This is the latest recevied weather packets stored in our database for station/object LKPR. If no packets are shown the sender has not sent any weather packets the latest 1 day(s).
| Time | Temp. | Humidity | Pressure | Rain* | Wind** | Luminosity | Snow |
|---|---|---|---|---|---|---|---|
| 1836273896 | 13.89° C | 82% | 1022 hPa | - | 0.45 m/s, 0° | - | - |
| 1778016722 | 12.78° C | 93% | 1007 hPa | - | 7.15 m/s, 280° | - | - |
| 1778015914 | 13.89° C | 93% | - | - | 7.15 m/s, 270° | - | - |
| 1778014923 | 13.89° C | 93% | 1006 hPa | - | 7.15 m/s, 270° | - | - |
| 1778014442 | 13.89° C | 93% | 1006 hPa | - | 6.71 m/s, 260° | - | - |
| 1778014263 | 13.89° C | 93% | 1006 hPa | - | 6.71 m/s, 250° | - | - |
| 1778013303 | 16.11° C | 77% | 1005 hPa | - | 4.47 m/s, 280° | - | - |
| 1778013123 | 16.11° C | 77% | 1005 hPa | - | 5.36 m/s, 280° | - | - |
| 1778012522 | 17.22° C | 67% | 1005 hPa | - | 4.47 m/s, 290° | - | - |
| 1778012405 | 17.22° C | 63% | 1005 hPa | - | 4.47 m/s, 290° | - | - |
| 1778012298 | 17.22° C | 59% | - | - | 6.26 m/s, 240° | - | - |
| 1778011983 | 17.22° C | 63% | 1005 hPa | - | 4.47 m/s, 270° | - | - |
| 1778011323 | 17.22° C | 63% | 1005 hPa | - | 6.71 m/s, 240° | - | - |
| 1778010662 | 16.11° C | 67% | 1005 hPa | - | 2.24 m/s, 250° | - | - |
| 1778009523 | 17.22° C | 63% | 1004 hPa | - | 2.68 m/s, 10° | - | - |
| 1778008715 | 17.78° C | 55% | - | - | 4.02 m/s, 50° | - | - |
| 1778007723 | 17.78° C | 55% | 1004 hPa | - | 3.13 m/s, 50° | - | - |
| 1778005923 | 17.78° C | 55% | 1004 hPa | - | 2.68 m/s, 20° | - | - |
| 1778005099 | 18.89° C | 52% | - | - | 4.02 m/s, 110° | - | - |
| 1778004123 | 18.89° C | 52% | 1004 hPa | - | 4.47 m/s, 110° | - | - |
| 1778002323 | 18.89° C | 52% | 1004 hPa | - | 5.81 m/s, 110° | - | - |
| 1778001482 | 20° C | 49% | - | - | 6.26 m/s, 130° | - | - |
| 1778000524 | 20° C | 49% | 1005 hPa | - | 5.81 m/s, 130° | - | - |
| 1777998722 | 22.22° C | 46% | 1004 hPa | - | 3.13 m/s, 80° | - | - |
| 1777997941 | 22.22° C | 43% | - | - | 4.02 m/s, 80° | - | - |
* Rain since midnight (hover to see other rain measurements)
** Current wind speed in m/s (hover to see current wind gust speed)